createdAt,value
2023-03-28T00:00:16.768Z,71.96
2023-03-28T00:01:18.673Z,71.87
2023-03-28T00:02:22.885Z,71.98
2023-03-28T00:03:27.165Z,71.85
2023-03-28T00:04:30.013Z,71.28
2023-03-28T00:05:32.415Z,71.37
2023-03-28T00:06:35.388Z,71.36
2023-03-28T00:07:37.264Z,71.89
2023-03-28T00:08:40.629Z,71.54
2023-03-28T00:09:43.378Z,71.19
2023-03-28T00:10:46.569Z,71.51
2023-03-28T00:11:48.884Z,71.19
2023-03-28T00:12:52.139Z,71.01
2023-03-28T00:13:58.136Z,71.86
2023-03-28T00:15:00.878Z,71.30
2023-03-28T00:16:05.784Z,71.87
2023-03-28T00:17:07.728Z,71.57
2023-03-28T00:18:12.632Z,71.67
2023-03-28T00:19:16.243Z,71.03
2023-03-28T00:20:19.753Z,71.47
2023-03-28T00:21:24.025Z,71.21
2023-03-28T00:22:30.569Z,70.80
2023-03-28T00:23:34.009Z,70.78
2023-03-28T00:24:38.810Z,70.89
2023-03-28T00:25:41.648Z,71.16
2023-03-28T00:26:49.410Z,71.29
2023-03-28T00:27:51.496Z,71.40
2023-03-28T00:28:54.897Z,71.38
2023-03-28T00:29:56.692Z,71.12
2023-03-28T00:31:03.928Z,71.17
2023-03-28T00:32:06.924Z,71.32
2023-03-28T00:33:08.848Z,70.97
2023-03-28T00:34:13.260Z,71.39
2023-03-28T00:35:15.910Z,71.30
2023-03-28T00:36:22.910Z,71.36
2023-03-28T00:37:25.546Z,71.36
2023-03-28T00:38:28.884Z,71.64
2023-03-28T00:39:31.372Z,71.24
2023-03-28T00:40:37.769Z,71.10
2023-03-28T00:41:42.594Z,71.12
2023-03-28T00:42:45.692Z,70.96
2023-03-28T00:43:49.833Z,70.99
2023-03-28T00:44:54.754Z,71.24
2023-03-28T00:46:08.311Z,71.53
2023-03-28T00:47:25.512Z,71.91
2023-03-28T00:48:28.331Z,72.24
2023-03-28T00:49:32.613Z,72.16
2023-03-28T00:50:38.006Z,71.89
2023-03-28T00:51:43.561Z,72.34
2023-03-28T00:52:49.739Z,72.46
2023-03-28T00:53:53.431Z,72.16
2023-03-28T00:54:57.576Z,71.98
2023-03-28T00:56:04.240Z,72.51
2023-03-28T00:57:07.541Z,72.35
2023-03-28T00:58:12.372Z,72.37
2023-03-28T00:59:16.988Z,72.21
2023-03-28T01:00:20.982Z,72.51
2023-03-28T01:01:23.058Z,72.73
2023-03-28T01:02:26.021Z,72.09
2023-03-28T01:03:30.476Z,71.85
2023-03-28T01:04:39.145Z,71.89
2023-03-28T01:05:42.488Z,72.01
2023-03-28T01:06:46.633Z,72.22
2023-03-28T01:07:56.488Z,72.08
2023-03-28T01:08:59.629Z,71.93
2023-03-28T01:10:05.141Z,72.11
2023-03-28T01:11:07.276Z,72.47
2023-03-28T01:12:11.199Z,72.31
2023-03-28T01:13:13.743Z,72.39
2023-03-28T01:14:20.680Z,72.49
2023-03-28T01:15:24.692Z,72.91
2023-03-28T01:16:32.822Z,72.51
2023-03-28T01:17:37.919Z,72.54
2023-03-28T01:18:41.838Z,72.21
2023-03-28T01:19:59.046Z,72.53
2023-03-28T01:21:26.151Z,72.97
2023-03-28T01:23:12.182Z,73.19
2023-03-28T01:24:40.550Z,73.29
2023-03-28T01:26:12.099Z,73.43
2023-03-28T01:27:19.231Z,73.33
2023-03-28T01:28:31.218Z,73.09
2023-03-28T01:30:01.693Z,73.04
2023-03-28T01:31:36.073Z,73.07
2023-03-28T01:33:05.766Z,72.60
2023-03-28T01:34:53.284Z,72.59
2023-03-28T01:36:10.680Z,72.94
2023-03-28T01:37:26.024Z,72.87
2023-03-28T01:38:35.611Z,73.09
2023-03-28T01:39:49.112Z,72.78
2023-03-28T01:41:02.304Z,72.99
2023-03-28T01:42:17.884Z,72.97
2023-03-28T01:43:27.956Z,72.65
2023-03-28T01:44:37.919Z,73.15
2023-03-28T01:45:45.967Z,73.03
2023-03-28T01:46:58.150Z,73.08
2023-03-28T01:48:04.764Z,72.96
2023-03-28T01:49:10.314Z,72.73
2023-03-28T01:50:18.153Z,73.00
2023-03-28T01:51:26.168Z,73.25
2023-03-28T01:52:36.214Z,73.13
2023-03-28T01:53:44.641Z,73.53
2023-03-28T01:54:52.374Z,72.96
2023-03-28T01:56:01.941Z,73.09
2023-03-28T01:57:10.555Z,73.44
2023-03-28T01:58:16.989Z,73.44
2023-03-28T01:59:27.440Z,73.96
2023-03-28T02:01:04.364Z,73.87
2023-03-28T02:02:11.627Z,74.05
2023-03-28T02:03:18.720Z,73.93
2023-03-28T02:04:37.416Z,74.44
2023-03-28T02:05:41.065Z,74.45
2023-03-28T02:06:48.177Z,74.26
2023-03-28T02:07:58.357Z,74.45
2023-03-28T02:09:10.838Z,74.92
2023-03-28T02:10:33.639Z,75.09
2023-03-28T02:11:39.098Z,75.48
2023-03-28T02:13:16.099Z,75.69
2023-03-28T02:14:37.828Z,74.97
2023-03-28T02:16:16.755Z,75.69
2023-03-28T02:17:41.571Z,75.93
2023-03-28T02:19:03.632Z,75.87
2023-03-28T02:20:19.473Z,75.99
2023-03-28T02:21:43.451Z,76.16
2023-03-28T02:23:26.058Z,75.93
2023-03-28T02:24:50.498Z,76.07
2023-03-28T02:26:12.424Z,76.35
2023-03-28T02:27:44.527Z,76.67
2023-03-28T02:28:55.800Z,76.36
2023-03-28T02:30:10.544Z,76.46
2023-03-28T02:31:13.805Z,76.47
2023-03-28T02:32:21.579Z,76.01
2023-03-28T02:33:33.581Z,76.29
2023-03-28T02:34:36.497Z,76.90
2023-03-28T02:35:48.571Z,76.52
2023-03-28T02:36:54.974Z,76.37
2023-03-28T02:38:04.005Z,76.57
2023-03-28T02:39:29.324Z,76.55
2023-03-28T02:40:47.867Z,76.36
2023-03-28T02:42:16.963Z,76.85
2023-03-28T02:43:35.480Z,76.57
2023-03-28T02:44:50.050Z,76.60
2023-03-28T02:46:07.925Z,76.85
2023-03-28T02:47:16.961Z,76.59
2023-03-28T02:48:30.046Z,77.24
2023-03-28T02:49:49.934Z,76.80
2023-03-28T02:51:06.195Z,77.33
2023-03-28T02:52:14.826Z,77.47
2023-03-28T02:53:22.779Z,77.55
2023-03-28T02:54:31.050Z,77.62
2023-03-28T02:55:58.116Z,77.81
2023-03-28T02:57:24.283Z,77.94
2023-03-28T02:58:34.234Z,78.13
2023-03-28T02:59:41.279Z,77.71
2023-03-28T03:00:44.084Z,77.91
2023-03-28T03:01:45.978Z,78.45
2023-03-28T03:02:51.463Z,78.18
2023-03-28T03:03:54.464Z,78.22
2023-03-28T03:05:01.831Z,78.31
2023-03-28T03:06:04.321Z,78.34
2023-03-28T03:07:09.450Z,78.48
2023-03-28T03:08:12.679Z,78.56
2023-03-28T03:09:16.667Z,79.05
2023-03-28T03:10:21.974Z,78.72
2023-03-28T03:11:27.960Z,78.96
2023-03-28T03:12:30.958Z,78.69
2023-03-28T03:13:33.051Z,78.49
2023-03-28T03:14:39.045Z,78.71
2023-03-28T03:16:06.258Z,79.14
2023-03-28T03:17:08.614Z,78.96
2023-03-28T03:18:12.995Z,78.83
2023-03-28T03:19:15.389Z,78.73
2023-03-28T03:20:19.121Z,78.88
2023-03-28T03:21:21.861Z,78.71
2023-03-28T03:22:25.073Z,79.51
2023-03-28T03:23:27.273Z,79.72
2023-03-28T03:24:34.525Z,79.62
2023-03-28T03:25:38.521Z,79.50
2023-03-28T03:26:57.524Z,79.67
2023-03-28T03:27:59.355Z,79.60
2023-03-28T03:29:02.975Z,79.41
2023-03-28T03:30:08.296Z,79.41
2023-03-28T03:31:29.409Z,79.92
2023-03-28T03:32:49.788Z,79.89
2023-03-28T03:33:52.655Z,79.98
2023-03-28T03:34:59.372Z,79.82
2023-03-28T03:36:04.010Z,79.63
2023-03-28T03:37:07.132Z,79.86
2023-03-28T03:38:09.176Z,79.79
2023-03-28T03:39:12.065Z,79.84
2023-03-28T03:40:14.684Z,79.47
2023-03-28T03:41:21.836Z,79.72
2023-03-28T03:42:24.212Z,79.54
2023-03-28T03:43:28.347Z,79.77
2023-03-28T03:44:30.368Z,79.52
2023-03-28T03:45:33.240Z,79.59
2023-03-28T03:46:35.074Z,79.47
2023-03-28T03:47:38.445Z,80.00
2023-03-28T03:48:49.389Z,79.91
2023-03-28T03:49:53.128Z,79.65
2023-03-28T03:50:54.942Z,79.68
2023-03-28T03:51:58.066Z,80.06
2023-03-28T03:53:00.915Z,79.94
2023-03-28T03:54:12.055Z,79.84
2023-03-28T03:55:14.815Z,79.58
2023-03-28T03:56:19.225Z,79.51
2023-03-28T03:57:31.189Z,79.58
2023-03-28T03:58:36.410Z,79.73
2023-03-28T03:59:44.761Z,79.47
2023-03-28T04:00:50.696Z,79.84
2023-03-28T04:02:12.092Z,79.48
2023-03-28T04:03:34.298Z,79.93
2023-03-28T04:04:40.456Z,79.87
2023-03-28T04:05:50.855Z,80.12
2023-03-28T04:06:53.702Z,79.87
2023-03-28T04:07:57.554Z,79.89
2023-03-28T04:09:06.142Z,80.18
2023-03-28T04:10:28.510Z,80.62
2023-03-28T04:11:31.818Z,80.16
2023-03-28T04:12:35.003Z,80.12
2023-03-28T04:13:37.916Z,80.14
2023-03-28T04:14:41.268Z,80.07
2023-03-28T04:16:23.933Z,80.87
2023-03-28T04:17:34.706Z,80.60
2023-03-28T04:18:40.767Z,80.74
2023-03-28T04:19:45.819Z,80.75
2023-03-28T04:20:53.744Z,80.54
2023-03-28T04:22:13.412Z,80.91
2023-03-28T04:23:25.732Z,80.57
2023-03-28T04:24:29.748Z,80.43
2023-03-28T04:25:55.201Z,80.38
2023-03-28T04:27:18.045Z,80.67
2023-03-28T04:28:25.983Z,80.79
2023-03-28T04:29:35.920Z,80.92
2023-03-28T04:30:58.102Z,81.09
2023-03-28T04:32:05.609Z,80.75
2023-03-28T04:33:34.033Z,80.78
2023-03-28T04:34:39.234Z,80.59
2023-03-28T04:35:48.649Z,80.74
2023-03-28T04:36:51.010Z,80.98
2023-03-28T04:37:57.774Z,80.98
2023-03-28T04:39:02.407Z,80.84
2023-03-28T04:40:28.147Z,80.55
2023-03-28T04:41:50.162Z,80.49
2023-03-28T04:43:02.347Z,80.24
2023-03-28T04:44:10.584Z,80.52
2023-03-28T04:45:21.860Z,80.44
2023-03-28T04:46:24.014Z,80.38
2023-03-28T04:47:27.064Z,80.46
2023-03-28T04:48:29.078Z,80.43
2023-03-28T04:49:32.331Z,80.35
2023-03-28T04:50:35.943Z,80.34
2023-03-28T04:51:39.056Z,80.36
2023-03-28T04:52:41.887Z,80.23
2023-03-28T04:53:44.871Z,80.31
2023-03-28T04:55:25.795Z,80.23
2023-03-28T04:56:27.960Z,80.05
2023-03-28T04:57:31.849Z,80.11
2023-03-28T04:58:41.688Z,79.93
2023-03-28T04:59:45.276Z,80.28
2023-03-28T05:00:56.933Z,80.55
2023-03-28T05:02:28.899Z,80.57
2023-03-28T05:03:39.671Z,80.82
2023-03-28T05:04:43.288Z,80.75
2023-03-28T05:05:46.714Z,80.75
2023-03-28T05:06:49.898Z,81.07
2023-03-28T05:07:52.835Z,82.26
2023-03-28T05:08:57.710Z,81.94
2023-03-28T05:10:03.191Z,82.23
2023-03-28T05:11:11.841Z,81.84
2023-03-28T05:12:13.679Z,81.65
2023-03-28T05:13:34.794Z,81.90
2023-03-28T05:14:46.424Z,82.39
2023-03-28T05:15:52.198Z,82.18
2023-03-28T05:17:10.783Z,82.18
2023-03-28T05:18:35.897Z,82.55
2023-03-28T05:19:39.345Z,82.12
2023-03-28T05:20:45.709Z,82.07
2023-03-28T05:21:48.497Z,82.37
2023-03-28T05:22:50.331Z,82.64
2023-03-28T05:23:53.472Z,82.92
2023-03-28T05:24:58.354Z,82.80
2023-03-28T05:26:02.472Z,82.96
2023-03-28T05:27:07.291Z,82.96
2023-03-28T05:28:10.179Z,83.40
2023-03-28T05:29:23.065Z,83.61
2023-03-28T05:30:27.907Z,83.32
2023-03-28T05:31:32.787Z,83.09
2023-03-28T05:32:53.921Z,83.00
2023-03-28T05:33:55.850Z,82.83
2023-03-28T05:35:13.216Z,82.55
2023-03-28T05:36:15.187Z,82.68
2023-03-28T05:37:18.013Z,82.76
2023-03-28T05:38:25.280Z,83.21
2023-03-28T05:39:31.688Z,83.01
2023-03-28T05:40:43.660Z,83.23
2023-03-28T05:41:45.662Z,83.37
2023-03-28T05:42:48.475Z,83.74
2023-03-28T05:43:53.522Z,83.47
2023-03-28T05:45:12.627Z,83.73
2023-03-28T05:46:31.583Z,83.70
2023-03-28T05:47:33.772Z,83.74
2023-03-28T05:48:36.901Z,83.33
2023-03-28T05:49:39.095Z,83.70
2023-03-28T05:50:41.922Z,83.38
2023-03-28T05:51:44.287Z,83.32
2023-03-28T05:52:47.424Z,83.21
2023-03-28T05:53:49.546Z,82.52
2023-03-28T05:54:52.533Z,82.62
2023-03-28T05:55:57.283Z,81.99
2023-03-28T05:56:59.184Z,81.69
2023-03-28T05:58:01.998Z,82.31
2023-03-28T05:59:12.764Z,81.79
2023-03-28T06:00:15.744Z,81.98
2023-03-28T06:01:23.326Z,82.14
2023-03-28T06:02:33.462Z,81.37
2023-03-28T06:03:40.015Z,81.59
2023-03-28T06:04:43.508Z,81.04
2023-03-28T06:05:49.324Z,81.21
2023-03-28T06:06:55.065Z,81.97
2023-03-28T06:08:02.805Z,80.91
2023-03-28T06:09:05.182Z,80.37
2023-03-28T06:10:21.400Z,79.49
2023-03-28T06:11:37.648Z,78.83
2023-03-28T06:12:43.573Z,79.20
2023-03-28T06:13:46.705Z,78.97
2023-03-28T06:14:49.766Z,78.52
2023-03-28T06:16:01.530Z,78.19
2023-03-28T06:17:09.877Z,78.32
2023-03-28T06:18:23.694Z,77.45
2023-03-28T06:19:26.456Z,77.34
2023-03-28T06:20:31.225Z,76.99
2023-03-28T06:21:33.554Z,77.68
2023-03-28T06:22:41.356Z,77.81
2023-03-28T06:23:46.662Z,77.12
2023-03-28T06:25:00.310Z,76.83
2023-03-28T06:26:08.517Z,77.31
2023-03-28T06:27:16.651Z,76.82
2023-03-28T06:28:19.431Z,76.72
2023-03-28T06:29:57.562Z,76.78
2023-03-28T06:31:00.846Z,77.76
2023-03-28T06:32:04.173Z,76.98
2023-03-28T06:33:07.403Z,76.60
2023-03-28T06:34:10.693Z,76.74
2023-03-28T06:35:25.371Z,76.31
2023-03-28T06:36:27.242Z,76.72
2023-03-28T06:37:30.127Z,76.56
2023-03-28T06:38:37.511Z,76.19
2023-03-28T06:39:41.293Z,76.63
2023-03-28T06:40:44.962Z,77.03
2023-03-28T06:41:47.939Z,77.06
2023-03-28T06:42:49.907Z,76.76
2023-03-28T06:43:58.575Z,76.83
2023-03-28T06:45:19.833Z,76.44
2023-03-28T06:46:30.433Z,76.19
2023-03-28T06:47:33.441Z,76.20
2023-03-28T06:48:36.502Z,76.62
2023-03-28T06:50:01.054Z,77.25
2023-03-28T06:51:12.816Z,77.69
2023-03-28T06:52:16.887Z,78.26
2023-03-28T06:53:22.091Z,78.41
2023-03-28T06:54:25.303Z,76.18
2023-03-28T06:55:27.093Z,75.98
2023-03-28T06:56:31.966Z,75.94
2023-03-28T06:57:34.635Z,75.16
2023-03-28T06:58:56.742Z,75.83
2023-03-28T07:00:02.302Z,76.63
2023-03-28T07:01:26.365Z,77.44
2023-03-28T07:02:41.558Z,78.05
2023-03-28T07:03:44.945Z,77.36
2023-03-28T07:04:53.471Z,75.53
2023-03-28T07:05:58.588Z,74.15
2023-03-28T07:07:01.682Z,73.35
2023-03-28T07:08:03.567Z,73.65
2023-03-28T07:09:07.551Z,73.27
2023-03-28T07:10:17.392Z,73.33
2023-03-28T07:11:19.306Z,72.85
2023-03-28T07:12:26.228Z,73.09
2023-03-28T07:13:29.138Z,72.78
2023-03-28T07:14:36.666Z,71.86
2023-03-28T07:15:38.498Z,72.42
2023-03-28T07:16:41.510Z,73.29
2023-03-28T07:17:45.334Z,73.53
2023-03-28T07:18:48.281Z,73.39
2023-03-28T07:19:57.261Z,72.74
2023-03-28T07:21:06.932Z,73.06
2023-03-28T07:22:09.892Z,73.34
2023-03-28T07:23:11.850Z,71.90
2023-03-28T07:24:15.592Z,72.58
2023-03-28T07:25:29.627Z,72.81
2023-03-28T07:26:32.412Z,71.59
2023-03-28T07:27:35.310Z,70.80
2023-03-28T07:28:37.432Z,70.65
2023-03-28T07:29:40.687Z,70.88
2023-03-28T07:30:42.533Z,70.64
2023-03-28T07:31:46.553Z,70.22
2023-03-28T07:32:54.966Z,69.91
2023-03-28T07:34:06.387Z,69.68
2023-03-28T07:35:09.452Z,69.93
2023-03-28T07:36:23.033Z,69.78
2023-03-28T07:37:29.557Z,70.47
2023-03-28T07:38:43.321Z,70.90
2023-03-28T07:39:45.472Z,71.02
2023-03-28T07:40:52.730Z,70.51
2023-03-28T07:41:55.634Z,70.70
2023-03-28T07:42:57.560Z,70.83
2023-03-28T07:44:00.802Z,69.85
2023-03-28T07:45:02.695Z,69.62
2023-03-28T07:46:08.194Z,69.69
2023-03-28T07:47:12.022Z,69.58
2023-03-28T07:48:13.824Z,69.24
2023-03-28T07:49:17.614Z,68.98
2023-03-28T07:50:19.926Z,68.54
2023-03-28T07:51:24.563Z,68.96
2023-03-28T07:52:26.526Z,69.10
2023-03-28T07:53:29.638Z,69.56
2023-03-28T07:54:34.419Z,68.67
2023-03-28T07:55:48.459Z,69.28
2023-03-28T07:56:57.970Z,69.80
2023-03-28T07:58:19.274Z,69.86
2023-03-28T07:59:21.759Z,69.28
2023-03-28T08:00:27.648Z,69.66
2023-03-28T08:01:48.799Z,69.77
2023-03-28T08:02:54.045Z,69.60
2023-03-28T08:03:57.055Z,70.20
2023-03-28T08:05:06.473Z,69.42
2023-03-28T08:06:24.341Z,69.78
2023-03-28T08:07:35.540Z,69.64
2023-03-28T08:08:38.748Z,68.41
2023-03-28T08:09:59.061Z,68.71
2023-03-28T08:11:03.875Z,68.66
2023-03-28T08:12:07.094Z,68.49
2023-03-28T08:13:08.983Z,69.54
2023-03-28T08:14:13.611Z,68.67
2023-03-28T08:15:16.775Z,68.91
2023-03-28T08:16:19.895Z,68.45
2023-03-28T08:17:23.380Z,68.12
2023-03-28T08:18:27.632Z,67.86
2023-03-28T08:19:30.883Z,67.70
2023-03-28T08:20:47.804Z,67.21
2023-03-28T08:21:52.034Z,68.32
2023-03-28T08:22:55.694Z,68.15
2023-03-28T08:24:25.350Z,68.03
2023-03-28T08:25:42.413Z,67.75
2023-03-28T08:26:48.206Z,66.90
2023-03-28T08:27:51.705Z,66.67
2023-03-28T08:28:55.233Z,66.52
2023-03-28T08:29:58.013Z,65.31
2023-03-28T08:31:01.966Z,66.13
2023-03-28T08:32:06.350Z,67.25
2023-03-28T08:33:10.679Z,67.36
2023-03-28T08:34:13.993Z,68.36
2023-03-28T08:35:17.352Z,69.70
2023-03-28T08:36:22.731Z,70.33
2023-03-28T08:37:25.052Z,71.11
2023-03-28T08:38:29.596Z,71.20
2023-03-28T08:39:32.573Z,72.59
2023-03-28T08:40:37.237Z,73.47
2023-03-28T08:42:12.044Z,74.09
2023-03-28T08:43:24.794Z,75.20
2023-03-28T08:44:48.504Z,75.67
2023-03-28T08:45:52.539Z,76.22
2023-03-28T08:46:57.576Z,76.23
2023-03-28T08:48:08.702Z,77.21
2023-03-28T08:49:13.939Z,78.02
2023-03-28T08:50:17.466Z,77.55
2023-03-28T08:51:25.296Z,77.69
2023-03-28T08:52:28.109Z,78.09
2023-03-28T08:53:37.236Z,78.28
2023-03-28T08:54:43.801Z,78.53
2023-03-28T08:55:47.676Z,77.33
2023-03-28T08:56:51.431Z,76.97
2023-03-28T08:57:55.864Z,76.94
2023-03-28T08:59:04.909Z,76.94
2023-03-28T09:00:14.850Z,77.38
2023-03-28T09:01:20.926Z,77.13
2023-03-28T09:02:25.049Z,77.38
2023-03-28T09:03:29.410Z,77.37
2023-03-28T09:04:37.642Z,76.72
2023-03-28T09:05:50.939Z,75.78
2023-03-28T09:06:57.855Z,73.48
2023-03-28T09:08:03.612Z,73.61
2023-03-28T09:09:26.093Z,73.95
2023-03-28T09:10:46.138Z,70.41
2023-03-28T09:11:58.442Z,68.49
2023-03-28T09:13:08.274Z,67.66
2023-03-28T09:14:23.429Z,67.08
2023-03-28T09:15:39.534Z,67.78
2023-03-28T09:16:55.146Z,67.64
2023-03-28T09:18:12.032Z,65.91
2023-03-28T09:19:36.969Z,65.40
2023-03-28T09:21:14.602Z,63.49
2023-03-28T09:22:27.490Z,63.26
2023-03-28T09:23:41.904Z,60.95
2023-03-28T09:25:20.020Z,60.58
2023-03-28T09:26:26.122Z,62.61
2023-03-28T09:27:47.434Z,62.83
2023-03-28T09:28:58.776Z,63.17
2023-03-28T09:30:11.454Z,64.16
2023-03-28T09:31:15.488Z,62.01
2023-03-28T09:32:22.051Z,62.32
2023-03-28T09:33:27.905Z,60.78
2023-03-28T09:34:37.927Z,62.69
2023-03-28T09:35:41.851Z,62.25
2023-03-28T09:36:48.867Z,62.12
2023-03-28T09:37:56.689Z,62.10
2023-03-28T09:39:00.982Z,62.21
2023-03-28T09:40:16.437Z,61.30
2023-03-28T09:41:48.767Z,60.95
2023-03-28T09:43:16.888Z,57.44
2023-03-28T09:44:52.909Z,58.25
2023-03-28T09:46:20.379Z,58.65
2023-03-28T09:47:34.225Z,54.66
2023-03-28T09:48:42.620Z,56.71
2023-03-28T09:49:47.029Z,57.44
2023-03-28T09:50:52.488Z,58.00
2023-03-28T09:51:56.749Z,55.75
2023-03-28T09:52:59.284Z,56.54
2023-03-28T09:54:07.342Z,57.05
2023-03-28T09:55:18.101Z,56.17
2023-03-28T09:56:27.632Z,57.39
2023-03-28T09:58:05.494Z,58.61
2023-03-28T09:59:27.685Z,59.87
2023-03-28T10:00:35.464Z,59.73
2023-03-28T10:02:26.524Z,60.74
2023-03-28T10:03:32.295Z,61.80
2023-03-28T10:04:39.482Z,61.52
2023-03-28T10:06:01.973Z,62.96
2023-03-28T10:07:28.489Z,64.03
2023-03-28T10:08:39.920Z,64.39
2023-03-28T10:09:56.927Z,63.96
2023-03-28T10:11:04.631Z,64.82
2023-03-28T10:12:09.929Z,64.67
2023-03-28T10:13:14.150Z,63.64
2023-03-28T10:14:34.338Z,64.50
2023-03-28T10:15:45.968Z,63.70
2023-03-28T10:17:04.408Z,61.35
2023-03-28T10:18:18.220Z,61.22
2023-03-28T10:19:24.439Z,58.76
2023-03-28T10:20:38.182Z,58.85
2023-03-28T10:21:42.655Z,57.49
2023-03-28T10:22:50.319Z,57.45
2023-03-28T10:23:59.047Z,57.94
2023-03-28T10:25:01.675Z,58.81
2023-03-28T10:26:06.165Z,57.71
2023-03-28T10:27:16.556Z,57.48
2023-03-28T10:28:28.659Z,56.34
2023-03-28T10:29:31.055Z,58.10
2023-03-28T10:30:35.596Z,56.93
2023-03-28T10:31:39.593Z,55.97
2023-03-28T10:33:24.522Z,54.70
2023-03-28T10:34:35.051Z,52.96
2023-03-28T10:35:57.649Z,55.13
2023-03-28T10:36:59.581Z,54.35
2023-03-28T10:38:16.445Z,53.36
2023-03-28T10:39:42.899Z,53.48
2023-03-28T10:41:25.367Z,54.58
2023-03-28T10:42:45.958Z,54.89
2023-03-28T10:44:19.416Z,54.97
2023-03-28T10:45:33.416Z,54.71
2023-03-28T10:46:37.450Z,56.05
2023-03-28T10:47:59.895Z,54.97
2023-03-28T10:49:05.832Z,55.75
2023-03-28T10:50:21.141Z,56.23
2023-03-28T10:51:25.845Z,55.30
2023-03-28T10:52:36.885Z,55.74
2023-03-28T10:53:55.566Z,56.34
2023-03-28T10:55:09.557Z,56.07
2023-03-28T10:56:41.548Z,56.12
2023-03-28T10:57:52.097Z,56.63
2023-03-28T10:59:06.423Z,56.99
2023-03-28T11:00:12.991Z,57.62
2023-03-28T11:01:19.514Z,58.11
2023-03-28T11:02:46.637Z,58.18
2023-03-28T11:04:07.531Z,58.93
2023-03-28T11:05:18.477Z,58.20
2023-03-28T11:06:24.140Z,58.11
2023-03-28T11:07:31.224Z,58.86
2023-03-28T11:08:56.632Z,57.65
2023-03-28T11:10:14.571Z,56.53
2023-03-28T11:11:45.380Z,56.79
2023-03-28T11:13:02.759Z,56.13
2023-03-28T11:14:21.858Z,56.39
2023-03-28T11:15:29.511Z,56.59
2023-03-28T11:16:47.369Z,57.78
2023-03-28T11:18:14.929Z,58.74
2023-03-28T11:19:27.912Z,59.16
2023-03-28T11:20:41.165Z,59.52
2023-03-28T11:21:49.284Z,59.96
2023-03-28T11:23:05.631Z,60.35
2023-03-28T11:24:26.964Z,60.63
2023-03-28T11:25:57.118Z,61.16
2023-03-28T11:27:23.401Z,62.63
2023-03-28T11:28:46.545Z,63.02
2023-03-28T11:29:56.181Z,61.39
2023-03-28T11:31:05.089Z,60.50
2023-03-28T11:32:18.790Z,60.13
2023-03-28T11:33:28.266Z,58.87
2023-03-28T11:34:40.798Z,59.44
2023-03-28T11:35:48.607Z,58.08
2023-03-28T11:36:54.612Z,57.76
2023-03-28T11:38:00.984Z,57.62
2023-03-28T11:39:08.866Z,56.77
2023-03-28T11:40:18.413Z,55.41
2023-03-28T11:41:33.078Z,55.32
2023-03-28T11:42:49.391Z,54.60
2023-03-28T11:43:53.743Z,51.78
2023-03-28T11:45:02.700Z,54.96
2023-03-28T11:46:07.991Z,54.39
2023-03-28T11:47:12.458Z,52.48
2023-03-28T11:48:20.776Z,52.78
2023-03-28T11:49:26.677Z,52.18
2023-03-28T11:50:34.623Z,52.86
2023-03-28T11:51:48.047Z,52.56
2023-03-28T11:52:55.742Z,54.04
2023-03-28T11:54:04.166Z,53.29
2023-03-28T11:55:16.834Z,53.82
2023-03-28T11:56:26.556Z,54.25
2023-03-28T11:57:52.949Z,55.02
2023-03-28T11:58:57.889Z,55.79
2023-03-28T12:00:11.437Z,55.96
2023-03-28T12:01:21.577Z,56.19
2023-03-28T12:02:37.254Z,56.73
2023-03-28T12:03:47.213Z,56.54
2023-03-28T12:04:54.818Z,56.68
2023-03-28T12:06:04.842Z,57.04
2023-03-28T12:07:13.183Z,56.07
2023-03-28T12:08:23.605Z,56.95
2023-03-28T12:09:31.904Z,56.88
2023-03-28T12:10:37.219Z,56.81
2023-03-28T12:12:03.364Z,57.94
2023-03-28T12:13:12.065Z,58.63
2023-03-28T12:14:38.404Z,60.97
2023-03-28T12:15:57.459Z,61.74
2023-03-28T12:17:01.716Z,62.59
2023-03-28T12:18:06.916Z,64.10
2023-03-28T12:19:12.093Z,65.34
2023-03-28T12:20:28.029Z,65.71
2023-03-28T12:21:34.600Z,66.04
2023-03-28T12:22:42.656Z,66.30
2023-03-28T12:23:59.524Z,67.10
2023-03-28T12:25:36.202Z,68.57
2023-03-28T12:26:59.607Z,68.60
2023-03-28T12:28:05.620Z,68.92
2023-03-28T12:29:16.347Z,69.24
2023-03-28T12:30:22.956Z,70.19
2023-03-28T12:31:29.673Z,71.01
2023-03-28T12:32:46.789Z,71.35
2023-03-28T12:34:00.615Z,71.46
2023-03-28T12:35:35.251Z,71.20
2023-03-28T12:36:49.011Z,71.64
2023-03-28T12:37:59.518Z,71.04
2023-03-28T12:39:05.903Z,70.67
2023-03-28T12:40:25.294Z,70.14
2023-03-28T12:41:31.710Z,69.30
2023-03-28T12:42:34.910Z,68.47
2023-03-28T12:43:43.426Z,67.54
2023-03-28T12:44:52.014Z,65.51
2023-03-28T12:45:57.546Z,64.78
2023-03-28T12:47:01.836Z,64.10
2023-03-28T12:48:11.807Z,64.54
2023-03-28T12:49:18.660Z,63.73
2023-03-28T12:50:27.992Z,61.96
2023-03-28T12:51:35.433Z,61.35
2023-03-28T12:52:38.261Z,56.67
2023-03-28T12:53:48.455Z,56.92
2023-03-28T12:54:59.622Z,56.82
2023-03-28T12:56:13.550Z,58.75
2023-03-28T12:57:45.274Z,59.02
2023-03-28T12:59:40.198Z,59.74
2023-03-28T13:00:59.857Z,59.95
2023-03-28T13:02:14.842Z,60.25
2023-03-28T13:03:39.040Z,60.35
2023-03-28T13:04:47.288Z,62.11
2023-03-28T13:05:58.360Z,63.46
2023-03-28T13:07:05.527Z,64.90
2023-03-28T13:08:13.622Z,66.73
2023-03-28T13:09:40.379Z,67.40
2023-03-28T13:10:46.404Z,69.87
2023-03-28T13:11:54.360Z,69.59
2023-03-28T13:13:08.638Z,69.86
2023-03-28T13:14:29.234Z,72.31
2023-03-28T13:15:57.291Z,72.70
2023-03-28T13:17:01.426Z,73.48
2023-03-28T13:18:27.788Z,72.74
2023-03-28T13:19:46.828Z,73.74
2023-03-28T13:20:51.180Z,73.03
2023-03-28T13:21:56.188Z,72.66
2023-03-28T13:23:02.029Z,71.99
2023-03-28T13:24:05.162Z,72.16
2023-03-28T13:25:27.209Z,70.79
2023-03-28T13:26:54.753Z,70.27
2023-03-28T13:28:00.804Z,70.83
2023-03-28T13:29:03.712Z,71.04
2023-03-28T13:30:07.576Z,70.85
2023-03-28T13:31:13.105Z,71.15
2023-03-28T13:32:16.741Z,71.69
2023-03-28T13:33:24.823Z,70.49
2023-03-28T13:34:33.103Z,70.21
2023-03-28T13:35:45.820Z,69.30
2023-03-28T13:36:51.669Z,70.28
2023-03-28T13:37:53.613Z,69.00
2023-03-28T13:39:21.388Z,69.17
2023-03-28T13:40:42.518Z,67.65
2023-03-28T13:42:01.401Z,66.13
2023-03-28T13:43:23.361Z,66.44
2023-03-28T13:44:30.179Z,63.53
2023-03-28T13:45:33.463Z,62.28
2023-03-28T13:46:39.039Z,62.31
2023-03-28T13:47:42.746Z,62.26
2023-03-28T13:48:48.432Z,62.26
2023-03-28T13:49:53.479Z,62.20
2023-03-28T13:50:58.366Z,62.37
2023-03-28T13:52:04.955Z,61.71
2023-03-28T13:53:06.861Z,61.57
2023-03-28T13:54:10.638Z,61.31
2023-03-28T13:55:20.974Z,61.90
2023-03-28T13:56:24.786Z,61.81
2023-03-28T13:57:28.167Z,60.99
2023-03-28T13:58:31.378Z,59.70
2023-03-28T13:59:36.348Z,59.23
2023-03-28T14:00:38.337Z,59.20
2023-03-28T14:01:47.532Z,59.44
2023-03-28T14:02:51.346Z,58.94
2023-03-28T14:03:55.713Z,57.38
2023-03-28T14:05:05.920Z,57.96
2023-03-28T14:06:15.502Z,57.03
2023-03-28T14:07:24.547Z,56.67
2023-03-28T14:08:26.417Z,57.32
2023-03-28T14:09:36.099Z,56.78
2023-03-28T14:10:41.644Z,57.09
2023-03-28T14:11:44.014Z,55.80
2023-03-28T14:12:47.758Z,55.76
2023-03-28T14:13:53.495Z,56.49
2023-03-28T14:14:57.393Z,55.58
2023-03-28T14:16:00.652Z,55.08
2023-03-28T14:17:04.873Z,54.75
2023-03-28T14:18:09.503Z,54.87
2023-03-28T14:19:20.032Z,56.78
2023-03-28T14:20:24.202Z,56.21
2023-03-28T14:21:26.969Z,56.01
2023-03-28T14:22:31.001Z,55.66
2023-03-28T14:23:36.599Z,56.47
2023-03-28T14:24:39.583Z,57.16
2023-03-28T14:25:41.425Z,56.51
2023-03-28T14:26:44.164Z,55.97
2023-03-28T14:27:48.058Z,55.43
2023-03-28T14:28:53.580Z,55.83
2023-03-28T14:29:57.744Z,54.49
2023-03-28T14:30:59.850Z,54.80
2023-03-28T14:32:07.653Z,55.08
2023-03-28T14:33:21.101Z,55.64
2023-03-28T14:34:26.089Z,56.10
2023-03-28T14:35:30.260Z,55.96
2023-03-28T14:36:37.754Z,56.54
2023-03-28T14:37:48.485Z,56.66
2023-03-28T14:38:51.345Z,57.13
2023-03-28T14:39:54.324Z,57.60
2023-03-28T14:41:06.381Z,57.27
2023-03-28T14:42:14.524Z,57.65
2023-03-28T14:43:20.511Z,58.80
2023-03-28T14:44:24.859Z,58.92
2023-03-28T14:45:27.616Z,59.62
2023-03-28T14:46:32.855Z,60.92
2023-03-28T14:47:36.729Z,61.10
2023-03-28T14:48:39.065Z,62.86
2023-03-28T14:49:42.320Z,64.97
2023-03-28T14:50:44.894Z,65.93
2023-03-28T14:51:55.172Z,67.08
2023-03-28T14:53:00.540Z,67.56
2023-03-28T14:54:05.000Z,68.39
2023-03-28T14:55:09.641Z,69.35
2023-03-28T14:56:13.126Z,69.64
2023-03-28T14:57:16.969Z,69.43